Sentry Page Protection

Latest Glasgow METAR Decoded

What is a METAR?

Raw METAR: EGPF 041120Z 10012KT 080V140 9999 SCT030 08/02 Q1007
Time Published: Mon Mar 4 11:20:00 2024

Altimeter: 1007 hPa (29.74 inHg)
Clouds: Scattered clouds at 3000ft - Reported AGL
Dewpoint: 2°C (36°F)
Temperature: 8°C (46°F)
Visibility: 10km (6.2sm)
Wind: E-100 (variable 080 to 140) at 12kt

Data pulled from AVWX API.

Customise webcam positions

Apply changes